sensor_id;sensor_type;location;lat;lon;timestamp;P1;durP1;ratioP1;P2;durP2;ratioP2
66721;SDS011;53633;49.932;10.884;2023-06-14T00:02:09;8.73;;;4.25;;
66721;SDS011;53633;49.932;10.884;2023-06-14T00:04:36;8.25;;;4.40;;
66721;SDS011;53633;49.932;10.884;2023-06-14T00:07:03;8.90;;;4.28;;
66721;SDS011;53633;49.932;10.884;2023-06-14T00:09:30;9.13;;;4.23;;
66721;SDS011;53633;49.932;10.884;2023-06-14T00:11:57;8.45;;;4.13;;
66721;SDS011;53633;49.932;10.884;2023-06-14T00:14:24;7.63;;;4.10;;
66721;SDS011;53633;49.932;10.884;2023-06-14T00:16:50;9.05;;;4.10;;
66721;SDS011;53633;49.932;10.884;2023-06-14T00:19:19;8.13;;;4.50;;
66721;SDS011;53633;49.932;10.884;2023-06-14T00:21:46;7.30;;;4.17;;
66721;SDS011;53633;49.932;10.884;2023-06-14T00:24:12;10.00;;;3.75;;
66721;SDS011;53633;49.932;10.884;2023-06-14T00:26:39;8.38;;;4.28;;
66721;SDS011;53633;49.932;10.884;2023-06-14T00:29:06;10.27;;;4.78;;
66721;SDS011;53633;49.932;10.884;2023-06-14T00:31:32;7.68;;;4.22;;
66721;SDS011;53633;49.932;10.884;2023-06-14T00:33:59;8.40;;;4.40;;
66721;SDS011;53633;49.932;10.884;2023-06-14T00:36:27;8.40;;;4.10;;
66721;SDS011;53633;49.932;10.884;2023-06-14T00:38:54;9.20;;;4.50;;
66721;SDS011;53633;49.932;10.884;2023-06-14T00:41:21;7.40;;;4.05;;
66721;SDS011;53633;49.932;10.884;2023-06-14T00:43:47;10.45;;;4.50;;
66721;SDS011;53633;49.932;10.884;2023-06-14T00:46:14;10.30;;;4.43;;
66721;SDS011;53633;49.932;10.884;2023-06-14T00:48:41;8.88;;;3.88;;
66721;SDS011;53633;49.932;10.884;2023-06-14T00:51:08;8.82;;;4.50;;
66721;SDS011;53633;49.932;10.884;2023-06-14T00:53:36;7.97;;;3.92;;
66721;SDS011;53633;49.932;10.884;2023-06-14T00:56:03;8.85;;;3.88;;
66721;SDS011;53633;49.932;10.884;2023-06-14T00:58:30;8.13;;;4.50;;
66721;SDS011;53633;49.932;10.884;2023-06-14T01:00:57;9.90;;;3.95;;
66721;SDS011;53633;49.932;10.884;2023-06-14T01:03:23;9.75;;;4.30;;
66721;SDS011;53633;49.932;10.884;2023-06-14T01:05:51;8.07;;;3.92;;
66721;SDS011;53633;49.932;10.884;2023-06-14T01:08:28;10.13;;;4.20;;
66721;SDS011;53633;49.932;10.884;2023-06-14T01:11:07;10.20;;;4.10;;
66721;SDS011;53633;49.932;10.884;2023-06-14T01:13:45;10.48;;;4.10;;
66721;SDS011;53633;49.932;10.884;2023-06-14T01:16:12;8.88;;;4.18;;
66721;SDS011;53633;49.932;10.884;2023-06-14T01:18:40;9.45;;;4.15;;
66721;SDS011;53633;49.932;10.884;2023-06-14T01:21:19;9.90;;;4.25;;
66721;SDS011;53633;49.932;10.884;2023-06-14T01:23:48;8.07;;;4.00;;
66721;SDS011;53633;49.932;10.884;2023-06-14T01:26:14;8.27;;;4.25;;
66721;SDS011;53633;49.932;10.884;2023-06-14T01:28:41;8.65;;;4.13;;
66721;SDS011;53633;49.932;10.884;2023-06-14T01:31:08;9.65;;;4.47;;
66721;SDS011;53633;49.932;10.884;2023-06-14T01:33:34;9.27;;;4.28;;
66721;SDS011;53633;49.932;10.884;2023-06-14T01:36:02;10.80;;;4.20;;
66721;SDS011;53633;49.932;10.884;2023-06-14T01:38:33;8.68;;;3.72;;
66721;SDS011;53633;49.932;10.884;2023-06-14T01:41:01;7.80;;;3.65;;
66721;SDS011;53633;49.932;10.884;2023-06-14T01:43:29;8.48;;;4.05;;
66721;SDS011;53633;49.932;10.884;2023-06-14T01:45:57;8.68;;;3.58;;
66721;SDS011;53633;49.932;10.884;2023-06-14T01:48:26;8.20;;;4.03;;
66721;SDS011;53633;49.932;10.884;2023-06-14T01:50:53;10.18;;;3.85;;
66721;SDS011;53633;49.932;10.884;2023-06-14T01:53:21;8.55;;;4.20;;
66721;SDS011;53633;49.932;10.884;2023-06-14T01:55:48;7.72;;;4.20;;
66721;SDS011;53633;49.932;10.884;2023-06-14T01:58:16;8.02;;;4.30;;
66721;SDS011;53633;49.932;10.884;2023-06-14T02:00:43;11.57;;;4.70;;
66721;SDS011;53633;49.932;10.884;2023-06-14T02:03:10;8.15;;;4.15;;
66721;SDS011;53633;49.932;10.884;2023-06-14T02:05:37;12.15;;;4.55;;
66721;SDS011;53633;49.932;10.884;2023-06-14T02:08:04;8.95;;;3.95;;
66721;SDS011;53633;49.932;10.884;2023-06-14T02:10:30;8.40;;;3.80;;
66721;SDS011;53633;49.932;10.884;2023-06-14T02:12:57;8.23;;;4.10;;
66721;SDS011;53633;49.932;10.884;2023-06-14T02:15:25;9.80;;;4.35;;
66721;SDS011;53633;49.932;10.884;2023-06-14T02:17:52;10.93;;;4.40;;
66721;SDS011;53633;49.932;10.884;2023-06-14T02:20:19;10.45;;;4.30;;
66721;SDS011;53633;49.932;10.884;2023-06-14T02:22:46;9.00;;;4.25;;
66721;SDS011;53633;49.932;10.884;2023-06-14T02:25:12;9.43;;;4.97;;
66721;SDS011;53633;49.932;10.884;2023-06-14T02:27:39;10.70;;;4.90;;
66721;SDS011;53633;49.932;10.884;2023-06-14T02:30:06;10.43;;;4.60;;
66721;SDS011;53633;49.932;10.884;2023-06-14T02:32:35;9.35;;;3.90;;
66721;SDS011;53633;49.932;10.884;2023-06-14T02:35:02;8.07;;;4.50;;
66721;SDS011;53633;49.932;10.884;2023-06-14T02:37:29;8.23;;;4.10;;
66721;SDS011;53633;49.932;10.884;2023-06-14T02:39:56;9.57;;;4.50;;
66721;SDS011;53633;49.932;10.884;2023-06-14T02:42:23;9.35;;;4.70;;
66721;SDS011;53633;49.932;10.884;2023-06-14T02:44:49;11.30;;;4.38;;
66721;SDS011;53633;49.932;10.884;2023-06-14T02:47:16;10.73;;;4.90;;
66721;SDS011;53633;49.932;10.884;2023-06-14T02:49:44;9.73;;;3.80;;
66721;SDS011;53633;49.932;10.884;2023-06-14T02:52:11;10.43;;;5.22;;
66721;SDS011;53633;49.932;10.884;2023-06-14T02:54:37;9.93;;;4.55;;
66721;SDS011;53633;49.932;10.884;2023-06-14T02:57:04;12.10;;;4.75;;
66721;SDS011;53633;49.932;10.884;2023-06-14T02:59:32;13.75;;;4.75;;
66721;SDS011;53633;49.932;10.884;2023-06-14T03:01:59;9.37;;;4.60;;
66721;SDS011;53633;49.932;10.884;2023-06-14T03:04:26;9.10;;;4.45;;
66721;SDS011;53633;49.932;10.884;2023-06-14T03:06:54;10.93;;;4.75;;
66721;SDS011;53633;49.932;10.884;2023-06-14T03:09:21;9.30;;;4.53;;
66721;SDS011;53633;49.932;10.884;2023-06-14T03:11:48;12.30;;;4.68;;
66721;SDS011;53633;49.932;10.884;2023-06-14T03:14:15;12.17;;;4.40;;
66721;SDS011;53633;49.932;10.884;2023-06-14T03:16:42;11.73;;;4.25;;
66721;SDS011;53633;49.932;10.884;2023-06-14T03:19:08;9.77;;;4.68;;
66721;SDS011;53633;49.932;10.884;2023-06-14T03:21:35;11.50;;;4.30;;
66721;SDS011;53633;49.932;10.884;2023-06-14T03:24:03;8.60;;;4.60;;
66721;SDS011;53633;49.932;10.884;2023-06-14T03:26:30;8.90;;;4.40;;
66721;SDS011;53633;49.932;10.884;2023-06-14T03:28:57;8.05;;;4.50;;
66721;SDS011;53633;49.932;10.884;2023-06-14T03:31:24;11.57;;;4.88;;
66721;SDS011;53633;49.932;10.884;2023-06-14T03:33:50;10.30;;;4.68;;
66721;SDS011;53633;49.932;10.884;2023-06-14T03:36:17;8.15;;;4.10;;
66721;SDS011;53633;49.932;10.884;2023-06-14T03:38:44;9.87;;;4.27;;
66721;SDS011;53633;49.932;10.884;2023-06-14T03:41:12;12.05;;;4.50;;
66721;SDS011;53633;49.932;10.884;2023-06-14T03:43:39;10.43;;;4.30;;
66721;SDS011;53633;49.932;10.884;2023-06-14T03:46:05;9.40;;;4.85;;
66721;SDS011;53633;49.932;10.884;2023-06-14T03:48:32;9.18;;;4.75;;
66721;SDS011;53633;49.932;10.884;2023-06-14T03:50:59;9.47;;;4.90;;
66721;SDS011;53633;49.932;10.884;2023-06-14T03:53:27;10.13;;;4.28;;
66721;SDS011;53633;49.932;10.884;2023-06-14T03:55:54;10.73;;;4.93;;
66721;SDS011;53633;49.932;10.884;2023-06-14T03:58:24;12.48;;;5.03;;
66721;SDS011;53633;49.932;10.884;2023-06-14T04:00:50;11.00;;;5.10;;
66721;SDS011;53633;49.932;10.884;2023-06-14T04:03:17;10.73;;;5.37;;
66721;SDS011;53633;49.932;10.884;2023-06-14T04:05:44;9.80;;;5.13;;
66721;SDS011;53633;49.932;10.884;2023-06-14T04:08:11;10.38;;;5.38;;
66721;SDS011;53633;49.932;10.884;2023-06-14T04:10:38;8.18;;;4.90;;
66721;SDS011;53633;49.932;10.884;2023-06-14T04:13:04;9.48;;;5.10;;
66721;SDS011;53633;49.932;10.884;2023-06-14T04:15:32;10.50;;;5.30;;
66721;SDS011;53633;49.932;10.884;2023-06-14T04:17:59;7.72;;;4.38;;
66721;SDS011;53633;49.932;10.884;2023-06-14T04:20:26;8.35;;;4.47;;
66721;SDS011;53633;49.932;10.884;2023-06-14T04:22:53;8.85;;;4.70;;
66721;SDS011;53633;49.932;10.884;2023-06-14T04:25:20;10.05;;;5.13;;
66721;SDS011;53633;49.932;10.884;2023-06-14T04:27:50;9.50;;;4.87;;
66721;SDS011;53633;49.932;10.884;2023-06-14T04:30:17;9.20;;;4.35;;
66721;SDS011;53633;49.932;10.884;2023-06-14T04:32:45;7.97;;;4.68;;
66721;SDS011;53633;49.932;10.884;2023-06-14T04:35:12;9.75;;;4.82;;
66721;SDS011;53633;49.932;10.884;2023-06-14T04:37:39;9.00;;;5.00;;
66721;SDS011;53633;49.932;10.884;2023-06-14T04:40:07;9.93;;;4.73;;
66721;SDS011;53633;49.932;10.884;2023-06-14T04:42:37;8.90;;;4.88;;
66721;SDS011;53633;49.932;10.884;2023-06-14T04:45:05;12.20;;;4.80;;
66721;SDS011;53633;49.932;10.884;2023-06-14T04:47:33;9.73;;;4.60;;
66721;SDS011;53633;49.932;10.884;2023-06-14T04:50:01;10.90;;;5.13;;
66721;SDS011;53633;49.932;10.884;2023-06-14T04:52:28;10.37;;;5.40;;
66721;SDS011;53633;49.932;10.884;2023-06-14T04:54:55;8.07;;;4.90;;
66721;SDS011;53633;49.932;10.884;2023-06-14T04:57:21;10.45;;;5.05;;
66721;SDS011;53633;49.932;10.884;2023-06-14T04:59:48;9.98;;;4.65;;
66721;SDS011;53633;49.932;10.884;2023-06-14T05:02:15;9.60;;;4.60;;
66721;SDS011;53633;49.932;10.884;2023-06-14T05:04:42;9.87;;;5.13;;
66721;SDS011;53633;49.932;10.884;2023-06-14T05:07:10;10.57;;;4.72;;
66721;SDS011;53633;49.932;10.884;2023-06-14T05:09:37;17.83;;;5.00;;
66721;SDS011;53633;49.932;10.884;2023-06-14T05:12:04;10.05;;;4.90;;
66721;SDS011;53633;49.932;10.884;2023-06-14T05:14:31;11.85;;;5.15;;
66721;SDS011;53633;49.932;10.884;2023-06-14T05:16:58;8.97;;;5.10;;
66721;SDS011;53633;49.932;10.884;2023-06-14T05:19:25;8.05;;;5.07;;
66721;SDS011;53633;49.932;10.884;2023-06-14T05:21:51;14.10;;;5.50;;
66721;SDS011;53633;49.932;10.884;2023-06-14T05:24:19;12.55;;;5.38;;
66721;SDS011;53633;49.932;10.884;2023-06-14T05:26:46;9.02;;;5.13;;
66721;SDS011;53633;49.932;10.884;2023-06-14T05:29:13;7.47;;;4.77;;
66721;SDS011;53633;49.932;10.884;2023-06-14T05:31:40;10.75;;;4.95;;
66721;SDS011;53633;49.932;10.884;2023-06-14T05:34:07;11.68;;;5.32;;
66721;SDS011;53633;49.932;10.884;2023-06-14T05:36:33;14.68;;;5.78;;
66721;SDS011;53633;49.932;10.884;2023-06-14T05:39:00;13.57;;;5.40;;
66721;SDS011;53633;49.932;10.884;2023-06-14T05:41:28;10.20;;;5.07;;
66721;SDS011;53633;49.932;10.884;2023-06-14T05:43:55;10.07;;;5.10;;
66721;SDS011;53633;49.932;10.884;2023-06-14T05:46:22;10.13;;;4.97;;
66721;SDS011;53633;49.932;10.884;2023-06-14T05:48:50;8.93;;;5.32;;
66721;SDS011;53633;49.932;10.884;2023-06-14T05:51:17;10.73;;;5.15;;
66721;SDS011;53633;49.932;10.884;2023-06-14T05:53:43;9.57;;;5.40;;
66721;SDS011;53633;49.932;10.884;2023-06-14T05:56:10;9.15;;;5.00;;
66721;SDS011;53633;49.932;10.884;2023-06-14T05:58:38;13.70;;;5.55;;
66721;SDS011;53633;49.932;10.884;2023-06-14T06:01:05;9.50;;;5.53;;
66721;SDS011;53633;49.932;10.884;2023-06-14T06:03:32;9.00;;;5.25;;
66721;SDS011;53633;49.932;10.884;2023-06-14T06:05:59;8.83;;;5.20;;
66721;SDS011;53633;49.932;10.884;2023-06-14T06:08:25;11.65;;;5.20;;
66721;SDS011;53633;49.932;10.884;2023-06-14T06:10:52;11.85;;;5.10;;
66721;SDS011;53633;49.932;10.884;2023-06-14T06:13:19;10.07;;;5.47;;
66721;SDS011;53633;49.932;10.884;2023-06-14T06:15:47;11.65;;;5.68;;
66721;SDS011;53633;49.932;10.884;2023-06-14T06:18:14;8.93;;;5.20;;
66721;SDS011;53633;49.932;10.884;2023-06-14T06:20:41;8.80;;;5.55;;
66721;SDS011;53633;49.932;10.884;2023-06-14T06:23:07;10.77;;;5.50;;
66721;SDS011;53633;49.932;10.884;2023-06-14T06:25:34;8.73;;;4.88;;
66721;SDS011;53633;49.932;10.884;2023-06-14T06:28:01;8.75;;;5.00;;
66721;SDS011;53633;49.932;10.884;2023-06-14T06:30:28;11.63;;;5.03;;
66721;SDS011;53633;49.932;10.884;2023-06-14T06:32:56;9.38;;;5.45;;
66721;SDS011;53633;49.932;10.884;2023-06-14T06:35:23;10.77;;;5.30;;
66721;SDS011;53633;49.932;10.884;2023-06-14T06:37:49;10.18;;;5.35;;
66721;SDS011;53633;49.932;10.884;2023-06-14T06:40:16;8.98;;;5.30;;
66721;SDS011;53633;49.932;10.884;2023-06-14T06:42:43;11.20;;;5.50;;
66721;SDS011;53633;49.932;10.884;2023-06-14T06:45:10;12.43;;;5.35;;
66721;SDS011;53633;49.932;10.884;2023-06-14T06:47:36;13.98;;;5.53;;
66721;SDS011;53633;49.932;10.884;2023-06-14T06:50:05;11.63;;;4.97;;
66721;SDS011;53633;49.932;10.884;2023-06-14T06:52:33;12.63;;;5.50;;
66721;SDS011;53633;49.932;10.884;2023-06-14T06:54:59;7.63;;;4.50;;
66721;SDS011;53633;49.932;10.884;2023-06-14T06:57:26;9.60;;;4.60;;
66721;SDS011;53633;49.932;10.884;2023-06-14T06:59:53;9.50;;;5.30;;
66721;SDS011;53633;49.932;10.884;2023-06-14T07:02:20;7.72;;;4.50;;
66721;SDS011;53633;49.932;10.884;2023-06-14T07:04:47;9.40;;;4.35;;
66721;SDS011;53633;49.932;10.884;2023-06-14T07:07:15;7.77;;;4.00;;
66721;SDS011;53633;49.932;10.884;2023-06-14T07:09:41;7.10;;;4.38;;
66721;SDS011;53633;49.932;10.884;2023-06-14T07:12:08;6.53;;;3.88;;
66721;SDS011;53633;49.932;10.884;2023-06-14T07:14:35;8.75;;;4.05;;
66721;SDS011;53633;49.932;10.884;2023-06-14T07:17:02;7.75;;;4.25;;
66721;SDS011;53633;49.932;10.884;2023-06-14T07:19:28;9.77;;;3.47;;
66721;SDS011;53633;49.932;10.884;2023-06-14T07:21:55;8.00;;;3.70;;
66721;SDS011;53633;49.932;10.884;2023-06-14T07:24:23;7.03;;;3.38;;
66721;SDS011;53633;49.932;10.884;2023-06-14T07:26:50;7.20;;;3.75;;
66721;SDS011;53633;49.932;10.884;2023-06-14T07:29:17;14.77;;;3.65;;
66721;SDS011;53633;49.932;10.884;2023-06-14T07:31:43;6.07;;;3.10;;
66721;SDS011;53633;49.932;10.884;2023-06-14T07:34:10;6.15;;;2.80;;
66721;SDS011;53633;49.932;10.884;2023-06-14T07:36:37;7.10;;;3.22;;
66721;SDS011;53633;49.932;10.884;2023-06-14T07:39:03;5.57;;;2.90;;
66721;SDS011;53633;49.932;10.884;2023-06-14T07:41:32;5.30;;;2.40;;
66721;SDS011;53633;49.932;10.884;2023-06-14T07:43:59;8.40;;;2.53;;
66721;SDS011;53633;49.932;10.884;2023-06-14T07:46:26;7.05;;;2.60;;
66721;SDS011;53633;49.932;10.884;2023-06-14T07:48:53;6.95;;;3.00;;
66721;SDS011;53633;49.932;10.884;2023-06-14T07:51:20;7.15;;;2.95;;
66721;SDS011;53633;49.932;10.884;2023-06-14T07:53:47;5.93;;;3.28;;
66721;SDS011;53633;49.932;10.884;2023-06-14T07:56:14;8.27;;;2.97;;
66721;SDS011;53633;49.932;10.884;2023-06-14T07:58:42;6.88;;;2.63;;
66721;SDS011;53633;49.932;10.884;2023-06-14T08:01:09;6.00;;;2.60;;
66721;SDS011;53633;49.932;10.884;2023-06-14T08:03:36;6.85;;;2.50;;
66721;SDS011;53633;49.932;10.884;2023-06-14T08:06:03;8.43;;;2.45;;
66721;SDS011;53633;49.932;10.884;2023-06-14T08:08:30;6.23;;;1.90;;
66721;SDS011;53633;49.932;10.884;2023-06-14T08:10:56;5.07;;;2.17;;
66721;SDS011;53633;49.932;10.884;2023-06-14T08:13:23;5.43;;;2.20;;
66721;SDS011;53633;49.932;10.884;2023-06-14T08:15:51;5.20;;;2.40;;
66721;SDS011;53633;49.932;10.884;2023-06-14T08:18:18;10.80;;;2.60;;
66721;SDS011;53633;49.932;10.884;2023-06-14T08:20:45;8.70;;;2.50;;
66721;SDS011;53633;49.932;10.884;2023-06-14T08:23:12;8.68;;;2.72;;
66721;SDS011;53633;49.932;10.884;2023-06-14T08:25:38;5.75;;;2.38;;
66721;SDS011;53633;49.932;10.884;2023-06-14T08:28:05;5.07;;;2.13;;
66721;SDS011;53633;49.932;10.884;2023-06-14T08:30:32;8.90;;;2.20;;
66721;SDS011;53633;49.932;10.884;2023-06-14T08:33:00;4.90;;;2.23;;
66721;SDS011;53633;49.932;10.884;2023-06-14T08:35:42;6.32;;;2.40;;
66721;SDS011;53633;49.932;10.884;2023-06-14T08:38:09;7.13;;;2.58;;
66721;SDS011;53633;49.932;10.884;2023-06-14T08:40:37;8.65;;;2.78;;
66721;SDS011;53633;49.932;10.884;2023-06-14T08:43:04;8.35;;;2.60;;
66721;SDS011;53633;49.932;10.884;2023-06-14T08:45:30;5.43;;;2.40;;
66721;SDS011;53633;49.932;10.884;2023-06-14T08:47:59;5.72;;;2.70;;
66721;SDS011;53633;49.932;10.884;2023-06-14T08:50:27;5.45;;;2.50;;
66721;SDS011;53633;49.932;10.884;2023-06-14T08:52:55;5.22;;;2.40;;
66721;SDS011;53633;49.932;10.884;2023-06-14T08:55:23;5.85;;;2.90;;
66721;SDS011;53633;49.932;10.884;2023-06-14T08:57:50;5.93;;;2.57;;
66721;SDS011;53633;49.932;10.884;2023-06-14T09:00:17;6.65;;;2.53;;
66721;SDS011;53633;49.932;10.884;2023-06-14T09:02:45;4.50;;;2.40;;
66721;SDS011;53633;49.932;10.884;2023-06-14T09:05:13;5.15;;;2.42;;
66721;SDS011;53633;49.932;10.884;2023-06-14T09:07:40;5.63;;;2.45;;
66721;SDS011;53633;49.932;10.884;2023-06-14T09:10:07;7.47;;;2.50;;
66721;SDS011;53633;49.932;10.884;2023-06-14T09:12:35;7.20;;;3.03;;
66721;SDS011;53633;49.932;10.884;2023-06-14T09:15:02;5.35;;;2.40;;
66721;SDS011;53633;49.932;10.884;2023-06-14T09:17:29;6.88;;;2.30;;
66721;SDS011;53633;49.932;10.884;2023-06-14T09:19:56;5.78;;;2.75;;
66721;SDS011;53633;49.932;10.884;2023-06-14T09:22:24;6.70;;;2.77;;
66721;SDS011;53633;49.932;10.884;2023-06-14T09:24:51;4.72;;;2.38;;
66721;SDS011;53633;49.932;10.884;2023-06-14T09:27:18;7.55;;;2.85;;
66721;SDS011;53633;49.932;10.884;2023-06-14T09:29:44;6.05;;;2.70;;
66721;SDS011;53633;49.932;10.884;2023-06-14T09:32:11;4.75;;;2.35;;
66721;SDS011;53633;49.932;10.884;2023-06-14T09:34:38;8.83;;;3.10;;
66721;SDS011;53633;49.932;10.884;2023-06-14T09:37:05;7.13;;;2.80;;
66721;SDS011;53633;49.932;10.884;2023-06-14T09:39:33;6.75;;;3.13;;
66721;SDS011;53633;49.932;10.884;2023-06-14T09:42:00;5.00;;;2.67;;
66721;SDS011;53633;49.932;10.884;2023-06-14T09:44:27;5.55;;;2.83;;
66721;SDS011;53633;49.932;10.884;2023-06-14T09:46:54;5.30;;;2.40;;
66721;SDS011;53633;49.932;10.884;2023-06-14T09:49:22;5.20;;;2.72;;
66721;SDS011;53633;49.932;10.884;2023-06-14T09:51:50;7.07;;;2.97;;
66721;SDS011;53633;49.932;10.884;2023-06-14T09:54:20;6.28;;;2.40;;
66721;SDS011;53633;49.932;10.884;2023-06-14T09:56:50;5.40;;;2.60;;
66721;SDS011;53633;49.932;10.884;2023-06-14T09:59:19;5.37;;;2.37;;
66721;SDS011;53633;49.932;10.884;2023-06-14T10:01:48;6.68;;;2.80;;
66721;SDS011;53633;49.932;10.884;2023-06-14T10:04:16;4.60;;;2.35;;
66721;SDS011;53633;49.932;10.884;2023-06-14T10:06:48;7.03;;;2.40;;
66721;SDS011;53633;49.932;10.884;2023-06-14T10:09:17;5.93;;;2.50;;
66721;SDS011;53633;49.932;10.884;2023-06-14T10:11:44;6.13;;;2.53;;
66721;SDS011;53633;49.932;10.884;2023-06-14T10:14:13;6.72;;;2.60;;
66721;SDS011;53633;49.932;10.884;2023-06-14T10:16:42;7.50;;;2.72;;
66721;SDS011;53633;49.932;10.884;2023-06-14T10:19:17;6.90;;;2.97;;
66721;SDS011;53633;49.932;10.884;2023-06-14T10:21:50;6.70;;;2.72;;
66721;SDS011;53633;49.932;10.884;2023-06-14T10:24:24;6.33;;;2.23;;
66721;SDS011;53633;49.932;10.884;2023-06-14T10:26:56;5.30;;;2.30;;
66721;SDS011;53633;49.932;10.884;2023-06-14T10:29:27;5.80;;;2.22;;
66721;SDS011;53633;49.932;10.884;2023-06-14T10:31:56;5.75;;;2.50;;
66721;SDS011;53633;49.932;10.884;2023-06-14T10:34:24;7.15;;;2.70;;
66721;SDS011;53633;49.932;10.884;2023-06-14T10:37:01;4.97;;;2.60;;
66721;SDS011;53633;49.932;10.884;2023-06-14T10:39:29;11.50;;;3.30;;
66721;SDS011;53633;49.932;10.884;2023-06-14T10:41:57;6.55;;;2.90;;
66721;SDS011;53633;49.932;10.884;2023-06-14T10:44:45;5.20;;;2.08;;
66721;SDS011;53633;49.932;10.884;2023-06-14T10:47:25;4.57;;;2.35;;
66721;SDS011;53633;49.932;10.884;2023-06-14T10:49:54;5.37;;;2.43;;
66721;SDS011;53633;49.932;10.884;2023-06-14T10:52:22;7.07;;;2.70;;
66721;SDS011;53633;49.932;10.884;2023-06-14T10:55:04;6.50;;;2.58;;
66721;SDS011;53633;49.932;10.884;2023-06-14T10:57:32;12.65;;;2.70;;
66721;SDS011;53633;49.932;10.884;2023-06-14T11:00:17;7.43;;;3.00;;
66721;SDS011;53633;49.932;10.884;2023-06-14T11:02:56;5.60;;;2.57;;
66721;SDS011;53633;49.932;10.884;2023-06-14T11:05:51;5.55;;;2.47;;
66721;SDS011;53633;49.932;10.884;2023-06-14T11:08:40;7.07;;;3.00;;
66721;SDS011;53633;49.932;10.884;2023-06-14T11:11:29;6.68;;;2.58;;
66721;SDS011;53633;49.932;10.884;2023-06-14T11:13:58;7.97;;;2.70;;
66721;SDS011;53633;49.932;10.884;2023-06-14T11:16:27;7.07;;;2.50;;
66721;SDS011;53633;49.932;10.884;2023-06-14T11:18:54;6.78;;;2.60;;
66721;SDS011;53633;49.932;10.884;2023-06-14T11:21:21;7.38;;;2.75;;
66721;SDS011;53633;49.932;10.884;2023-06-14T11:23:48;6.45;;;2.60;;
66721;SDS011;53633;49.932;10.884;2023-06-14T11:26:16;5.63;;;2.50;;
66721;SDS011;53633;49.932;10.884;2023-06-14T11:28:50;5.53;;;2.70;;
66721;SDS011;53633;49.932;10.884;2023-06-14T11:31:21;6.57;;;2.38;;
66721;SDS011;53633;49.932;10.884;2023-06-14T11:33:50;5.20;;;2.53;;
66721;SDS011;53633;49.932;10.884;2023-06-14T11:36:19;5.50;;;2.75;;
66721;SDS011;53633;49.932;10.884;2023-06-14T11:38:46;6.20;;;2.83;;
66721;SDS011;53633;49.932;10.884;2023-06-14T11:41:12;6.17;;;2.43;;
66721;SDS011;53633;49.932;10.884;2023-06-14T11:43:39;6.28;;;2.40;;
66721;SDS011;53633;49.932;10.884;2023-06-14T11:46:12;6.78;;;2.75;;
66721;SDS011;53633;49.932;10.884;2023-06-14T11:48:40;7.53;;;2.72;;
66721;SDS011;53633;49.932;10.884;2023-06-14T11:51:09;6.85;;;2.63;;
66721;SDS011;53633;49.932;10.884;2023-06-14T11:53:36;6.63;;;2.27;;
66721;SDS011;53633;49.932;10.884;2023-06-14T11:56:03;5.55;;;2.65;;
66721;SDS011;53633;49.932;10.884;2023-06-14T11:58:30;6.15;;;2.55;;
66721;SDS011;53633;49.932;10.884;2023-06-14T12:00:57;4.85;;;2.35;;
66721;SDS011;53633;49.932;10.884;2023-06-14T12:03:24;8.93;;;2.47;;
66721;SDS011;53633;49.932;10.884;2023-06-14T12:05:50;4.70;;;2.20;;
66721;SDS011;53633;49.932;10.884;2023-06-14T12:08:33;5.45;;;2.10;;
66721;SDS011;53633;49.932;10.884;2023-06-14T12:11:00;5.30;;;2.42;;
66721;SDS011;53633;49.932;10.884;2023-06-14T12:13:27;6.65;;;2.25;;
66721;SDS011;53633;49.932;10.884;2023-06-14T12:15:54;5.82;;;2.20;;
66721;SDS011;53633;49.932;10.884;2023-06-14T12:18:21;6.43;;;2.27;;
66721;SDS011;53633;49.932;10.884;2023-06-14T12:20:58;6.07;;;2.40;;
66721;SDS011;53633;49.932;10.884;2023-06-14T12:23:25;5.57;;;2.45;;
66721;SDS011;53633;49.932;10.884;2023-06-14T12:26:07;5.07;;;2.20;;
66721;SDS011;53633;49.932;10.884;2023-06-14T12:28:37;5.70;;;2.42;;
66721;SDS011;53633;49.932;10.884;2023-06-14T12:31:06;8.37;;;2.50;;
66721;SDS011;53633;49.932;10.884;2023-06-14T12:33:32;5.68;;;2.47;;
66721;SDS011;53633;49.932;10.884;2023-06-14T12:35:59;5.35;;;2.30;;
66721;SDS011;53633;49.932;10.884;2023-06-14T12:38:26;4.90;;;2.10;;
66721;SDS011;53633;49.932;10.884;2023-06-14T12:40:52;5.15;;;2.30;;
66721;SDS011;53633;49.932;10.884;2023-06-14T12:43:21;5.23;;;2.17;;
66721;SDS011;53633;49.932;10.884;2023-06-14T12:45:47;5.65;;;2.10;;
66721;SDS011;53633;49.932;10.884;2023-06-14T12:48:14;4.82;;;2.40;;
66721;SDS011;53633;49.932;10.884;2023-06-14T12:50:41;5.00;;;2.58;;
66721;SDS011;53633;49.932;10.884;2023-06-14T12:53:08;5.00;;;1.85;;
66721;SDS011;53633;49.932;10.884;2023-06-14T12:55:34;6.77;;;2.10;;
66721;SDS011;53633;49.932;10.884;2023-06-14T12:58:01;5.30;;;2.28;;
66721;SDS011;53633;49.932;10.884;2023-06-14T13:00:30;5.63;;;2.38;;
66721;SDS011;53633;49.932;10.884;2023-06-14T13:02:56;5.10;;;2.20;;
66721;SDS011;53633;49.932;10.884;2023-06-14T13:05:23;6.00;;;2.20;;
66721;SDS011;53633;49.932;10.884;2023-06-14T13:07:50;4.03;;;1.87;;
66721;SDS011;53633;49.932;10.884;2023-06-14T13:10:17;5.50;;;2.20;;
66721;SDS011;53633;49.932;10.884;2023-06-14T13:12:44;8.55;;;2.40;;
66721;SDS011;53633;49.932;10.884;2023-06-14T13:15:11;5.43;;;2.03;;
66721;SDS011;53633;49.932;10.884;2023-06-14T13:17:39;10.00;;;2.53;;
66721;SDS011;53633;49.932;10.884;2023-06-14T13:20:06;5.20;;;2.40;;
66721;SDS011;53633;49.932;10.884;2023-06-14T13:22:33;7.45;;;2.25;;
66721;SDS011;53633;49.932;10.884;2023-06-14T13:25:00;5.50;;;2.10;;
66721;SDS011;53633;49.932;10.884;2023-06-14T13:27:27;6.57;;;2.40;;
66721;SDS011;53633;49.932;10.884;2023-06-14T13:29:54;4.88;;;2.00;;
66721;SDS011;53633;49.932;10.884;2023-06-14T13:32:21;4.97;;;1.93;;
66721;SDS011;53633;49.932;10.884;2023-06-14T13:34:50;5.55;;;2.22;;
66721;SDS011;53633;49.932;10.884;2023-06-14T13:37:17;5.53;;;2.22;;
66721;SDS011;53633;49.932;10.884;2023-06-14T13:39:44;5.50;;;1.73;;
66721;SDS011;53633;49.932;10.884;2023-06-14T13:42:11;4.35;;;1.95;;
66721;SDS011;53633;49.932;10.884;2023-06-14T13:44:37;4.83;;;2.00;;
66721;SDS011;53633;49.932;10.884;2023-06-14T13:47:04;5.85;;;2.03;;
66721;SDS011;53633;49.932;10.884;2023-06-14T13:49:31;5.50;;;2.10;;
66721;SDS011;53633;49.932;10.884;2023-06-14T13:52:02;5.80;;;2.15;;
66721;SDS011;53633;49.932;10.884;2023-06-14T13:54:29;5.18;;;1.90;;
66721;SDS011;53633;49.932;10.884;2023-06-14T13:56:55;7.37;;;2.10;;
66721;SDS011;53633;49.932;10.884;2023-06-14T13:59:22;4.40;;;2.00;;
66721;SDS011;53633;49.932;10.884;2023-06-14T14:01:49;4.72;;;2.22;;
66721;SDS011;53633;49.932;10.884;2023-06-14T14:04:15;4.45;;;2.08;;
66721;SDS011;53633;49.932;10.884;2023-06-14T14:06:42;5.13;;;2.30;;
66721;SDS011;53633;49.932;10.884;2023-06-14T14:09:10;5.70;;;2.10;;
66721;SDS011;53633;49.932;10.884;2023-06-14T14:11:37;4.80;;;1.95;;
66721;SDS011;53633;49.932;10.884;2023-06-14T14:14:04;8.75;;;2.28;;
66721;SDS011;53633;49.932;10.884;2023-06-14T14:16:31;4.60;;;2.10;;
66721;SDS011;53633;49.932;10.884;2023-06-14T14:18:58;4.82;;;1.90;;
66721;SDS011;53633;49.932;10.884;2023-06-14T14:21:24;6.27;;;2.30;;
66721;SDS011;53633;49.932;10.884;2023-06-14T14:23:51;10.70;;;2.08;;
66721;SDS011;53633;49.932;10.884;2023-06-14T14:26:19;4.60;;;2.20;;
66721;SDS011;53633;49.932;10.884;2023-06-14T14:28:46;4.60;;;2.05;;
66721;SDS011;53633;49.932;10.884;2023-06-14T14:31:13;4.82;;;2.38;;
66721;SDS011;53633;49.932;10.884;2023-06-14T14:33:39;6.07;;;2.17;;
66721;SDS011;53633;49.932;10.884;2023-06-14T14:36:06;5.70;;;2.20;;